Time;durP1;ratioP1;P1;durP2;ratioP2;P2;SDS_P1;SDS_P2;PMS_P1;PMS_P2;Temp;Humidity;BMP_temperature;BMP_pressure;BME280_temperature;BME280_humidity;BME280_pressure;Samples;Min_cycle;Max_cycle;Signal;HPM_P1;HPM_P2
2022/02/05 00:01:33;;;;;;;;;;;;;;;;;;5077239;28;19951;-76
2022/02/05 00:04:05;;;;;;;;;;;;;;;;;;5084536;28;19955;-75
2022/02/05 00:06:35;;;;;;;;;;;;;;;;;;5081133;28;19960;-75
2022/02/05 00:38:37;;;;;;;;;;;;;;;;;;5086281;28;19955;-74
2022/02/05 00:41:17;;;;;;;;;;;;;;;;;;5088031;28;19939;-74
2022/02/05 00:43:52;;;;;;;;;;;;;;;;;;5087417;28;20001;-74
2022/02/05 00:46:19;;;;;;;;;;;;;;;;;;5086483;28;19995;-75
2022/02/05 00:48:45;;;;;;;;;;;;;;;;;;5085347;28;20648;-75
2022/02/05 00:51:20;;;;;;;;;;;;;;;;;;5084861;28;19963;-76
2022/02/05 00:53:57;;;;;;;;;;;;;;;;;;5086735;28;19923;-77
2022/02/05 00:56:37;;;;;;;;;;;;;;;;;;5086229;28;20320;-77
2022/02/05 00:59:03;;;;;;;;;;;;;;;;;;5084803;28;19968;-76
2022/02/05 01:01:29;;;;;;;;;;;;;;;;;;5087247;28;20544;-82
2022/02/05 01:03:55;;;;;;;;;;;;;;;;;;5085087;28;19959;-77
2022/02/05 01:06:21;;;;;;;;;;;;;;;;;;5076602;28;20398;-78
2022/02/05 01:08:48;;;;;;;;;;;;;;;;;;5087709;28;20028;-78
2022/02/05 01:11:14;;;;;;;;;;;;;;;;;;5066403;28;19950;-78
2022/02/05 01:13:41;;;;;;;;;;;;;;;;;;5080550;28;20434;-78
2022/02/05 01:16:16;;;;;;;;;;;;;;;;;;5086090;28;20379;-78
2022/02/05 01:18:44;;;;;;;;;;;;;;;;;;5085694;28;20012;-78
2022/02/05 01:21:26;;;;;;;;;;;;;;;;;;5083751;28;19977;-79
2022/02/05 01:23:58;;;;;;;;;;;;;;;;;;5079700;28;20455;-78
2022/02/05 01:26:37;;;;;;;;;;;;;;;;;;5078097;28;19948;-78
2022/02/05 01:31:56;;;;;;;;;;;;;;;;;;5051206;28;20347;-77
2022/02/05 01:34:40;;;;;;;;;;;;;;;;;;5083453;28;19952;-77
2022/02/05 01:51:08;;;;;;;;;;;;;;;;;;5081971;28;20200;-77
2022/02/05 01:56:26;;;;;;;;;;;;;;;;;;5086774;28;19952;-76
2022/02/05 01:59:17;;;;;;;;;;;;;;;;;;5088247;28;21334;-73
2022/02/05 02:09:38;;;;;;;;;;;;;;;;;;5087797;28;19955;-75
2022/02/05 02:15:56;;;;;;;;;;;;;;;;;;5062467;28;20005;-75
2022/02/05 02:21:11;;;;;;;;;;;;;;;;;;5081812;28;19973;-76
2022/02/05 02:31:09;;;;;;;;;;;;;;;;;;5085657;28;19956;-76
2022/02/05 02:33:41;;;;;;;;;;;;;;;;;;5082978;28;19966;-76
2022/02/05 02:36:12;;;;;;;;;;;;;;;;;;5086630;28;20401;-76
2022/02/05 02:38:46;;;;;;;;;;;;;;;;;;5081254;28;19959;-75
2022/02/05 02:41:19;;;;;;;;;;;;;;;;;;5066173;28;19960;-76
2022/02/05 02:43:45;;;;;;;;;;;;;;;;;;5068377;28;20399;-74
2022/02/05 02:46:11;;;;;;;;;;;;;;;;;;5067455;28;19920;-75
2022/02/05 02:48:42;;;;;;;;;;;;;;;;;;5065318;28;20436;-75
2022/02/05 02:59:09;;;;;;;;;;;;;;;;;;5091389;28;20012;-75
2022/02/05 03:01:41;;;;;;;;;;;;;;;;;;5083062;28;20395;-75
2022/02/05 03:04:07;;;;;;;;;;;;;;;;;;5085740;28;19944;-75
2022/02/05 03:06:33;;;;;;;;;;;;;;;;;;5065825;28;20517;-75
2022/02/05 03:09:00;;;;;;;;;;;;;;;;;;5085146;28;19920;-75
2022/02/05 03:11:26;;;;;;;;;;;;;;;;;;5082500;28;20368;-76
2022/02/05 03:13:52;;;;;;;;;;;;;;;;;;5066942;28;19920;-75
2022/02/05 03:16:26;;;;;;;;;;;;;;;;;;5086290;28;19979;-75
2022/02/05 03:21:22;;;;;;;;;;;;;;;;;;5065478;28;19943;-75
2022/02/05 03:23:48;;;;;;;;;;;;;;;;;;5065464;28;19967;-76
2022/02/05 03:26:14;;;;;;;;;;;;;;;;;;5066176;28;19955;-75
2022/02/05 03:28:40;;;;;;;;;;;;;;;;;;5063365;28;20015;-75
2022/02/05 03:31:07;;;;;;;;;;;;;;;;;;5060380;28;19948;-75
2022/02/05 03:33:33;;;;;;;;;;;;;;;;;;5064070;28;20261;-75
2022/02/05 03:35:59;;;;;;;;;;;;;;;;;;5064951;28;19956;-75
2022/02/05 03:38:28;;;;;;;;;;;;;;;;;;5059390;28;19948;-75
2022/02/05 03:40:55;;;;;;;;;;;;;;;;;;5063998;28;19955;-76
2022/02/05 03:43:21;;;;;;;;;;;;;;;;;;5064814;28;19958;-76
2022/02/05 03:45:47;;;;;;;;;;;;;;;;;;5060062;28;19956;-78
2022/02/05 03:48:13;;;;;;;;;;;;;;;;;;5065441;28;19956;-76
2022/02/05 03:50:39;;;;;;;;;;;;;;;;;;5061563;28;19956;-75
2022/02/05 03:53:06;;;;;;;;;;;;;;;;;;5059586;28;20457;-76
2022/02/05 03:55:32;;;;;;;;;;;;;;;;;;5073388;28;19928;-75
2022/02/05 03:57:58;;;;;;;;;;;;;;;;;;5068930;28;19951;-75
2022/02/05 04:00:25;;;;;;;;;;;;;;;;;;5083036;28;19970;-76
2022/02/05 04:02:51;;;;;;;;;;;;;;;;;;5083799;28;19964;-75
2022/02/05 04:05:17;;;;;;;;;;;;;;;;;;5084412;28;19959;-76
2022/02/05 04:07:48;;;;;;;;;;;;;;;;;;5085156;28;20372;-75
2022/02/05 04:10:20;;;;;;;;;;;;;;;;;;5084943;28;19956;-75
2022/02/05 04:18:17;;;;;;;;;;;;;;;;;;5085077;28;19952;-75
2022/02/05 04:20:44;;;;;;;;;;;;;;;;;;5082017;28;19928;-76
2022/02/05 04:23:15;;;;;;;;;;;;;;;;;;5084121;28;19917;-76
2022/02/05 04:25:43;;;;;;;;;;;;;;;;;;5077364;28;20054;-75
2022/02/05 04:28:14;;;;;;;;;;;;;;;;;;5085938;28;19923;-75
2022/02/05 04:30:40;;;;;;;;;;;;;;;;;;5084538;28;20348;-76
2022/02/05 04:33:07;;;;;;;;;;;;;;;;;;5084952;28;20008;-76
2022/02/05 04:35:33;;;;;;;;;;;;;;;;;;5063084;28;19947;-75
2022/02/05 04:38:01;;;;;;;;;;;;;;;;;;5084104;28;19977;-75
2022/02/05 04:40:31;;;;;;;;;;;;;;;;;;5090174;28;19955;-75
2022/02/05 04:53:40;;;;;;;;;;;;;;;;;;5084942;28;20409;-76
2022/02/05 05:04:56;;;;;;;;;;;;;;;;;;5085377;28;19956;-77
2022/02/05 05:20:19;;;;;;;;;;;;;;;;;;5059329;28;19971;-77
2022/02/05 05:22:45;;;;;;;;;;;;;;;;;;5082299;28;19997;-76
2022/02/05 05:25:11;;;;;;;;;;;;;;;;;;5088576;28;19959;-76
2022/02/05 05:27:39;;;;;;;;;;;;;;;;;;5087071;28;20415;-76
2022/02/05 05:30:06;;;;;;;;;;;;;;;;;;5069182;28;20587;-76
2022/02/05 05:32:32;;;;;;;;;;;;;;;;;;5085521;28;19967;-75
2022/02/05 05:34:58;;;;;;;;;;;;;;;;;;5087673;28;20406;-76
2022/02/05 05:37:24;;;;;;;;;;;;;;;;;;5086654;28;20001;-76
2022/02/05 05:39:50;;;;;;;;;;;;;;;;;;5088221;28;19971;-76
2022/02/05 05:42:57;;;;;;;;;;;;;;;;;;5086973;28;19960;-76
2022/02/05 05:47:49;;;;;;;;;;;;;;;;;;5083664;28;19955;-76
2022/02/05 05:50:57;;;;;;;;;;;;;;;;;;5070072;28;20527;-76
2022/02/05 05:53:01;;;;;;;;;;;;;;;;;;5085472;28;19971;-76
2022/02/05 05:55:28;;;;;;;;;;;;;;;;;;5087274;28;19940;-76
2022/02/05 05:57:54;;;;;;;;;;;;;;;;;;5067599;28;20441;-76
2022/02/05 06:00:20;;;;;;;;;;;;;;;;;;5086359;28;20418;-76
2022/02/05 06:02:46;;;;;;;;;;;;;;;;;;5086583;28;21762;-76
2022/02/05 06:05:12;;;;;;;;;;;;;;;;;;5086853;28;20000;-76
2022/02/05 06:07:39;;;;;;;;;;;;;;;;;;5061676;28;19966;-76
2022/02/05 06:10:05;;;;;;;;;;;;;;;;;;5085489;28;20004;-76
2022/02/05 06:12:31;;;;;;;;;;;;;;;;;;5085171;28;19943;-76
2022/02/05 06:15:00;;;;;;;;;;;;;;;;;;5085282;28;20332;-76
2022/02/05 06:17:26;;;;;;;;;;;;;;;;;;5061178;28;20370;-75
2022/02/05 06:19:54;;;;;;;;;;;;;;;;;;5084486;28;19959;-75
2022/02/05 06:22:20;;;;;;;;;;;;;;;;;;5081671;28;19947;-76
2022/02/05 06:24:46;;;;;;;;;;;;;;;;;;5088831;28;20522;-75
2022/02/05 06:27:12;;;;;;;;;;;;;;;;;;5082432;28;19974;-75
2022/02/05 06:29:38;;;;;;;;;;;;;;;;;;5082145;28;19968;-75
2022/02/05 06:32:05;;;;;;;;;;;;;;;;;;5061518;28;19960;-76
2022/02/05 06:34:31;;;;;;;;;;;;;;;;;;5064495;28;20376;-76
2022/02/05 06:36:57;;;;;;;;;;;;;;;;;;5087241;28;19965;-75
2022/02/05 06:39:23;;;;;;;;;;;;;;;;;;5083447;28;19964;-76
2022/02/05 06:41:49;;;;;;;;;;;;;;;;;;5085778;28;19955;-75
2022/02/05 06:44:16;;;;;;;;;;;;;;;;;;5084538;28;19944;-76
2022/02/05 06:46:42;;;;;;;;;;;;;;;;;;5075588;28;19959;-76
2022/02/05 06:49:08;;;;;;;;;;;;;;;;;;5085310;28;19959;-77
2022/02/05 06:51:34;;;;;;;;;;;;;;;;;;5070439;28;19931;-77
2022/02/05 06:54:00;;;;;;;;;;;;;;;;;;5061378;28;19962;-77
2022/02/05 06:56:27;;;;;;;;;;;;;;;;;;5077671;28;19956;-77
2022/02/05 06:58:53;;;;;;;;;;;;;;;;;;5080558;28;20032;-77
2022/02/05 07:01:19;;;;;;;;;;;;;;;;;;5090790;28;19963;-76
2022/02/05 07:03:45;;;;;;;;;;;;;;;;;;5065112;28;19986;-76
2022/02/05 07:06:12;;;;;;;;;;;;;;;;;;5085371;28;21130;-76
2022/02/05 07:08:40;;;;;;;;;;;;;;;;;;5085347;28;19967;-77
2022/02/05 07:11:06;;;;;;;;;;;;;;;;;;5087147;28;20563;-77
2022/02/05 07:13:33;;;;;;;;;;;;;;;;;;5086974;28;19959;-77
2022/02/05 07:16:14;;;;;;;;;;;;;;;;;;5084983;28;20405;-77
2022/02/05 07:21:36;;;;;;;;;;;;;;;;;;5084994;28;19963;-77
2022/02/05 07:29:27;;;;;;;;;;;;;;;;;;5044839;28;20450;-77
2022/02/05 07:31:53;;;;;;;;;;;;;;;;;;5065226;28;19924;-76
2022/02/05 07:34:19;;;;;;;;;;;;;;;;;;5084512;28;20384;-76
2022/02/05 07:36:45;;;;;;;;;;;;;;;;;;5082697;28;19956;-76
2022/02/05 07:39:12;;;;;;;;;;;;;;;;;;5085327;28;20341;-75
2022/02/05 07:41:38;;;;;;;;;;;;;;;;;;5075432;28;19952;-76
2022/02/05 07:44:04;;;;;;;;;;;;;;;;;;5086021;28;19951;-78
2022/02/05 07:46:31;;;;;;;;;;;;;;;;;;5084413;28;19962;-77
2022/02/05 07:48:57;;;;;;;;;;;;;;;;;;5085140;28;19971;-76
2022/02/05 07:51:23;;;;;;;;;;;;;;;;;;5083900;28;19959;-77
2022/02/05 07:53:49;;;;;;;;;;;;;;;;;;5084826;28;20450;-76
2022/02/05 07:56:15;;;;;;;;;;;;;;;;;;5084414;28;19955;-76
2022/02/05 07:58:42;;;;;;;;;;;;;;;;;;5082005;28;19963;-76
2022/02/05 08:01:08;;;;;;;;;;;;;;;;;;5085039;28;19971;-76
2022/02/05 08:03:34;;;;;;;;;;;;;;;;;;5064486;28;19947;-76
2022/02/05 08:06:00;;;;;;;;;;;;;;;;;;5084613;28;19948;-76
2022/02/05 08:08:30;;;;;;;;;;;;;;;;;;5062124;28;19944;-77
2022/02/05 08:11:07;;;;;;;;;;;;;;;;;;5083754;28;19967;-76
2022/02/05 08:13:34;;;;;;;;;;;;;;;;;;5082427;28;19974;-76
2022/02/05 08:16:29;;;;;;;;;;;;;;;;;;5085109;28;19959;-76
2022/02/05 08:18:55;;;;;;;;;;;;;;;;;;5081215;28;22135;-77
2022/02/05 08:21:21;;;;;;;;;;;;;;;;;;5081787;28;19923;-76
2022/02/05 08:23:48;;;;;;;;;;;;;;;;;;5081786;28;20032;-75
2022/02/05 08:26:14;;;;;;;;;;;;;;;;;;5081464;28;19988;-76
2022/02/05 08:28:40;;;;;;;;;;;;;;;;;;5079901;28;19959;-78
2022/02/05 08:31:07;;;;;;;;;;;;;;;;;;5085555;28;20496;-77
2022/02/05 08:33:36;;;;;;;;;;;;;;;;;;5085968;28;19997;-76
2022/02/05 08:36:02;;;;;;;;;;;;;;;;;;5089429;28;19956;-77
2022/02/05 08:38:28;;;;;;;;;;;;;;;;;;5084840;28;19956;-76
2022/02/05 08:40:54;;;;;;;;;;;;;;;;;;5085919;28;20309;-75
2022/02/05 08:43:20;;;;;;;;;;;;;;;;;;5084327;28;19947;-77
2022/02/05 08:45:47;;;;;;;;;;;;;;;;;;5086802;28;19966;-77
2022/02/05 08:48:13;;;;;;;;;;;;;;;;;;5085715;28;19947;-77
2022/02/05 08:50:39;;;;;;;;;;;;;;;;;;5085982;28;20531;-77
2022/02/05 08:53:05;;;;;;;;;;;;;;;;;;5087252;28;19963;-77
2022/02/05 08:55:33;;;;;;;;;;;;;;;;;;5067912;28;20353;-77
2022/02/05 08:58:01;;;;;;;;;;;;;;;;;;5082247;28;20427;-77
2022/02/05 09:00:27;;;;;;;;;;;;;;;;;;5081208;28;19975;-76
2022/02/05 09:03:02;;;;;;;;;;;;;;;;;;5065793;28;20437;-77
2022/02/05 09:05:47;;;;;;;;;;;;;;;;;;5083627;28;19985;-77
2022/02/05 09:08:24;;;;;;;;;;;;;;;;;;5083211;28;20033;-77
2022/02/05 09:16:02;;;;;;;;;;;;;;;;;;5084685;28;20289;-77
2022/02/05 09:18:28;;;;;;;;;;;;;;;;;;5084283;28;21002;-77
2022/02/05 09:20:54;;;;;;;;;;;;;;;;;;5088240;28;19959;-77
2022/02/05 09:23:20;;;;;;;;;;;;;;;;;;5067043;28;19956;-78
2022/02/05 09:25:47;;;;;;;;;;;;;;;;;;5086448;28;19959;-77
2022/02/05 09:28:13;;;;;;;;;;;;;;;;;;5085997;28;19963;-77
2022/02/05 09:30:47;;;;;;;;;;;;;;;;;;5065401;28;19956;-77
2022/02/05 09:33:13;;;;;;;;;;;;;;;;;;5087644;28;20407;-77
2022/02/05 09:35:39;;;;;;;;;;;;;;;;;;5086637;28;20001;-77
2022/02/05 09:38:05;;;;;;;;;;;;;;;;;;5087654;28;20393;-77
2022/02/05 09:40:32;;;;;;;;;;;;;;;;;;5085765;28;19987;-77
2022/02/05 09:42:59;;;;;;;;;;;;;;;;;;5068177;28;19951;-77
2022/02/05 09:45:25;;;;;;;;;;;;;;;;;;5085956;28;20012;-77
2022/02/05 09:47:51;;;;;;;;;;;;;;;;;;5083278;28;19958;-79
2022/02/05 09:50:20;;;;;;;;;;;;;;;;;;5086095;28;20024;-77
2022/02/05 09:52:51;;;;;;;;;;;;;;;;;;5086022;28;19955;-77
2022/02/05 09:55:17;;;;;;;;;;;;;;;;;;5086289;28;19951;-77
2022/02/05 09:57:43;;;;;;;;;;;;;;;;;;5085122;28;19963;-77
2022/02/05 10:00:10;;;;;;;;;;;;;;;;;;5087314;28;19935;-77
2022/02/05 10:02:38;;;;;;;;;;;;;;;;;;5085825;28;19964;-77
2022/02/05 10:05:07;;;;;;;;;;;;;;;;;;5086120;28;19960;-77
2022/02/05 10:07:33;;;;;;;;;;;;;;;;;;5066925;28;19916;-77
2022/02/05 10:09:59;;;;;;;;;;;;;;;;;;5083902;28;19960;-77
2022/02/05 10:12:26;;;;;;;;;;;;;;;;;;5081645;28;19960;-77
2022/02/05 10:14:54;;;;;;;;;;;;;;;;;;5085556;28;20452;-75
2022/02/05 10:17:21;;;;;;;;;;;;;;;;;;5087404;28;19970;-73
2022/02/05 10:19:47;;;;;;;;;;;;;;;;;;5084016;28;20077;-73
2022/02/05 10:22:13;;;;;;;;;;;;;;;;;;5084140;28;19962;-73
2022/02/05 10:24:39;;;;;;;;;;;;;;;;;;5085567;28;20028;-73
2022/02/05 10:27:05;;;;;;;;;;;;;;;;;;5086069;28;19974;-74
2022/02/05 10:29:38;;;;;;;;;;;;;;;;;;5082025;28;20380;-74
2022/02/05 10:32:11;;;;;;;;;;;;;;;;;;5083911;28;20004;-73
2022/02/05 10:34:37;;;;;;;;;;;;;;;;;;5080235;28;20363;-73
2022/02/05 10:37:06;;;;;;;;;;;;;;;;;;5085264;28;19997;-73
2022/02/05 10:39:51;;;;;;;;;;;;;;;;;;5081135;28;20617;-74
2022/02/05 10:45:02;;;;;;;;;;;;;;;;;;5084335;28;21016;-73
2022/02/05 10:47:28;;;;;;;;;;;;;;;;;;5086040;28;20004;-74
2022/02/05 10:49:57;;;;;;;;;;;;;;;;;;5086093;28;19977;-74
2022/02/05 10:52:23;;;;;;;;;;;;;;;;;;5085457;28;19960;-75
2022/02/05 10:54:53;;;;;;;;;;;;;;;;;;5084451;28;20810;-73
2022/02/05 10:57:29;;;;;;;;;;;;;;;;;;5089593;28;19985;-73
2022/02/05 11:05:49;;;;;;;;;;;;;;;;;;5083128;28;19916;-74
2022/02/05 11:08:16;;;;;;;;;;;;;;;;;;5082651;28;19920;-73
2022/02/05 11:21:09;;;;;;;;;;;;;;;;;;5086488;28;20516;-73
2022/02/05 11:23:35;;;;;;;;;;;;;;;;;;5064309;28;20019;-74
2022/02/05 11:26:02;;;;;;;;;;;;;;;;;;5068603;28;20523;-73
2022/02/05 11:28:28;;;;;;;;;;;;;;;;;;5084718;28;20021;-74
2022/02/05 11:30:56;;;;;;;;;;;;;;;;;;5079957;28;19987;-73
2022/02/05 11:33:23;;;;;;;;;;;;;;;;;;5085809;28;19955;-73
2022/02/05 11:38:19;;;;;;;;;;;;;;;;;;5086671;28;20447;-74
2022/02/05 11:40:45;;;;;;;;;;;;;;;;;;5083315;28;20009;-74
2022/02/05 11:43:12;;;;;;;;;;;;;;;;;;5085175;28;19955;-74
2022/02/05 11:45:38;;;;;;;;;;;;;;;;;;5082607;28;19951;-74
2022/02/05 11:48:04;;;;;;;;;;;;;;;;;;5085681;28;20437;-74
2022/02/05 11:50:33;;;;;;;;;;;;;;;;;;5065440;28;19950;-75
2022/02/05 11:52:59;;;;;;;;;;;;;;;;;;5082097;28;20394;-74
2022/02/05 11:55:25;;;;;;;;;;;;;;;;;;5083916;28;20000;-74
2022/02/05 11:57:55;;;;;;;;;;;;;;;;;;5082271;28;19959;-73
2022/02/05 12:00:24;;;;;;;;;;;;;;;;;;5083886;28;20021;-73
2022/02/05 12:02:59;;;;;;;;;;;;;;;;;;5084780;28;21276;-73
2022/02/05 12:05:32;;;;;;;;;;;;;;;;;;5068445;28;19947;-73
2022/02/05 12:07:58;;;;;;;;;;;;;;;;;;5089124;28;20397;-73
2022/02/05 12:10:24;;;;;;;;;;;;;;;;;;5088064;28;19955;-74
2022/02/05 12:12:51;;;;;;;;;;;;;;;;;;5053907;28;20001;-73
2022/02/05 12:15:18;;;;;;;;;;;;;;;;;;5088579;28;19963;-73
2022/02/05 12:17:44;;;;;;;;;;;;;;;;;;5090958;28;20015;-73
2022/02/05 12:20:21;;;;;;;;;;;;;;;;;;5088413;28;19963;-73
2022/02/05 12:22:47;;;;;;;;;;;;;;;;;;5070868;28;19951;-74
2022/02/05 12:25:17;;;;;;;;;;;;;;;;;;5089715;28;19955;-75
2022/02/05 12:27:43;;;;;;;;;;;;;;;;;;5052658;28;19950;-73
2022/02/05 12:30:09;;;;;;;;;;;;;;;;;;5090312;28;19920;-73
2022/02/05 12:32:35;;;;;;;;;;;;;;;;;;5086775;28;19952;-76
2022/02/05 12:35:01;;;;;;;;;;;;;;;;;;5059360;28;19954;-73
2022/02/05 12:37:28;;;;;;;;;;;;;;;;;;5068419;28;19955;-73
2022/02/05 12:39:54;;;;;;;;;;;;;;;;;;5085748;28;19960;-73
2022/02/05 12:42:20;;;;;;;;;;;;;;;;;;5089202;28;19955;-73
2022/02/05 12:44:48;;;;;;;;;;;;;;;;;;5086203;28;19947;-73
2022/02/05 12:47:14;;;;;;;;;;;;;;;;;;5069757;28;20036;-73
2022/02/05 12:52:10;;;;;;;;;;;;;;;;;;5088007;28;19951;-73
2022/02/05 12:54:36;;;;;;;;;;;;;;;;;;5051233;28;19978;-74
2022/02/05 12:57:02;;;;;;;;;;;;;;;;;;5086786;28;19948;-75
2022/02/05 12:59:28;;;;;;;;;;;;;;;;;;5058863;28;19969;-75
2022/02/05 13:01:55;;;;;;;;;;;;;;;;;;5089152;28;19946;-75
2022/02/05 13:04:21;;;;;;;;;;;;;;;;;;5085975;28;19954;-74
2022/02/05 13:06:47;;;;;;;;;;;;;;;;;;5087134;28;19978;-75
2022/02/05 13:09:13;;;;;;;;;;;;;;;;;;5069004;28;19956;-73
2022/02/05 13:11:39;;;;;;;;;;;;;;;;;;5085978;28;19955;-75
2022/02/05 13:14:06;;;;;;;;;;;;;;;;;;5066391;28;19944;-75
2022/02/05 13:16:32;;;;;;;;;;;;;;;;;;5065935;28;20673;-74
2022/02/05 13:19:14;;;;;;;;;;;;;;;;;;5064207;28;19936;-75
2022/02/05 13:27:41;;;;;;;;;;;;;;;;;;5039295;28;20017;-75
2022/02/05 13:35:37;;;;;;;;;;;;;;;;;;5083753;28;19959;-74
2022/02/05 13:38:04;;;;;;;;;;;;;;;;;;5087863;28;19955;-73
2022/02/05 13:40:34;;;;;;;;;;;;;;;;;;5084983;28;20439;-74
2022/02/05 13:43:00;;;;;;;;;;;;;;;;;;5086896;28;19944;-73
2022/02/05 13:45:38;;;;;;;;;;;;;;;;;;5060702;28;19956;-73
2022/02/05 13:48:05;;;;;;;;;;;;;;;;;;5086335;28;20000;-72
2022/02/05 13:50:37;;;;;;;;;;;;;;;;;;5084443;28;19944;-73
2022/02/05 13:53:03;;;;;;;;;;;;;;;;;;5065049;28;19970;-72
2022/02/05 13:55:29;;;;;;;;;;;;;;;;;;5065795;28;20447;-72
2022/02/05 13:57:56;;;;;;;;;;;;;;;;;;5068981;28;19940;-72
2022/02/05 14:00:22;;;;;;;;;;;;;;;;;;5086575;28;19955;-72
2022/02/05 14:02:48;;;;;;;;;;;;;;;;;;5086034;28;19956;-72
2022/02/05 14:05:15;;;;;;;;;;;;;;;;;;5065606;28;19959;-73
2022/02/05 14:07:41;;;;;;;;;;;;;;;;;;5064141;28;20687;-74
2022/02/05 14:10:07;;;;;;;;;;;;;;;;;;5080314;28;19956;-73
2022/02/05 14:12:33;;;;;;;;;;;;;;;;;;5079661;28;19967;-73
2022/02/05 14:15:00;;;;;;;;;;;;;;;;;;5081074;28;19951;-75
2022/02/05 14:17:26;;;;;;;;;;;;;;;;;;5086309;28;20076;-75
2022/02/05 14:19:53;;;;;;;;;;;;;;;;;;5082297;28;19948;-75
2022/02/05 14:22:19;;;;;;;;;;;;;;;;;;5063733;28;19975;-73
2022/02/05 14:24:45;;;;;;;;;;;;;;;;;;5079494;28;19971;-74
2022/02/05 14:27:15;;;;;;;;;;;;;;;;;;5083968;28;19924;-75
2022/02/05 14:32:52;;;;;;;;;;;;;;;;;;5080183;28;19956;-73
2022/02/05 14:35:07;;;;;;;;;;;;;;;;;;5064602;28;20354;-74
2022/02/05 14:43:06;;;;;;;;;;;;;;;;;;5004427;28;19945;-73
2022/02/05 14:45:33;;;;;;;;;;;;;;;;;;5039518;28;19948;-75
2022/02/05 14:48:00;;;;;;;;;;;;;;;;;;5063323;28;20397;-73
2022/02/05 14:50:26;;;;;;;;;;;;;;;;;;5062466;28;20001;-75
2022/02/05 14:52:52;;;;;;;;;;;;;;;;;;5084828;28;19920;-75
2022/02/05 14:55:19;;;;;;;;;;;;;;;;;;5063390;28;19983;-75
2022/02/05 14:57:45;;;;;;;;;;;;;;;;;;5086005;28;19959;-74
2022/02/05 15:00:11;;;;;;;;;;;;;;;;;;5060230;28;19956;-75
2022/02/05 15:02:37;;;;;;;;;;;;;;;;;;5065298;28;20008;-74
2022/02/05 15:05:10;;;;;;;;;;;;;;;;;;5083740;28;19966;-75
2022/02/05 15:07:37;;;;;;;;;;;;;;;;;;5083406;28;20008;-75
2022/02/05 15:10:03;;;;;;;;;;;;;;;;;;5084567;28;19952;-74
2022/02/05 15:12:29;;;;;;;;;;;;;;;;;;5079123;28;19971;-74
2022/02/05 15:14:55;;;;;;;;;;;;;;;;;;5065410;28;20017;-74
2022/02/05 15:17:22;;;;;;;;;;;;;;;;;;5084151;28;19924;-74
2022/02/05 15:19:48;;;;;;;;;;;;;;;;;;5036150;28;19928;-74
2022/02/05 15:22:14;;;;;;;;;;;;;;;;;;5047886;28;19959;-74
2022/02/05 15:24:41;;;;;;;;;;;;;;;;;;5063221;28;19960;-75
2022/02/05 15:27:12;;;;;;;;;;;;;;;;;;5064941;28;20027;-75
2022/02/05 15:29:41;;;;;;;;;;;;;;;;;;5081379;28;19951;-75
2022/02/05 15:32:08;;;;;;;;;;;;;;;;;;5072906;28;19947;-74
2022/02/05 15:34:34;;;;;;;;;;;;;;;;;;5070270;28;19963;-75
2022/02/05 15:37:08;;;;;;;;;;;;;;;;;;5046195;28;20334;-75
2022/02/05 15:45:02;;;;;;;;;;;;;;;;;;5081139;28;19965;-75
2022/02/05 15:47:29;;;;;;;;;;;;;;;;;;5078778;28;20014;-75
2022/02/05 15:49:55;;;;;;;;;;;;;;;;;;5063808;28;20615;-76
2022/02/05 15:52:21;;;;;;;;;;;;;;;;;;5069949;28;19997;-75
2022/02/05 15:54:49;;;;;;;;;;;;;;;;;;5078975;28;20053;-76
2022/02/05 16:00:03;;;;;;;;;;;;;;;;;;5080420;28;20445;-75
2022/02/05 16:02:29;;;;;;;;;;;;;;;;;;5064340;28;20369;-75
2022/02/05 16:04:56;;;;;;;;;;;;;;;;;;5082945;28;20009;-75
2022/02/05 16:07:22;;;;;;;;;;;;;;;;;;5081561;28;19923;-75
2022/02/05 16:09:49;;;;;;;;;;;;;;;;;;5062724;28;20587;-75
2022/02/05 16:12:15;;;;;;;;;;;;;;;;;;5082028;28;19948;-74
2022/02/05 16:14:41;;;;;;;;;;;;;;;;;;5045696;28;20002;-76
2022/02/05 16:17:08;;;;;;;;;;;;;;;;;;5080823;28;19959;-76
2022/02/05 16:19:34;;;;;;;;;;;;;;;;;;5078278;28;19960;-74
2022/02/05 16:22:00;;;;;;;;;;;;;;;;;;5062172;28;19967;-75
2022/02/05 16:24:26;;;;;;;;;;;;;;;;;;5081928;28;19943;-75
2022/02/05 16:27:06;;;;;;;;;;;;;;;;;;;;;
2022/02/05 16:29:34;;;;;;;;;;;;;;;;;;5078598;28;19917;-75
2022/02/05 16:32:02;;;;;;;;;;;;;;;;;;5084008;28;19955;-77
2022/02/05 16:34:30;;;;;;;;;;;;;;;;;;5073776;28;19955;-76
2022/02/05 16:36:59;;;;;;;;;;;;;;;;;;5065380;28;20340;-75
2022/02/05 16:39:27;;;;;;;;;;;;;;;;;;5080581;28;19996;-77
2022/02/05 16:41:53;;;;;;;;;;;;;;;;;;5080464;28;19967;-76
2022/02/05 16:44:20;;;;;;;;;;;;;;;;;;5088798;28;19955;-76
2022/02/05 16:46:47;;;;;;;;;;;;;;;;;;5082319;28;19967;-76
2022/02/05 16:49:14;;;;;;;;;;;;;;;;;;5083337;28;19956;-76
2022/02/05 16:51:42;;;;;;;;;;;;;;;;;;5084846;28;20405;-76
2022/02/05 16:54:09;;;;;;;;;;;;;;;;;;5086386;28;20165;-76
2022/02/05 16:56:36;;;;;;;;;;;;;;;;;;5076841;28;20024;-75
2022/02/05 16:59:02;;;;;;;;;;;;;;;;;;5086308;28;20668;-76
2022/02/05 17:01:30;;;;;;;;;;;;;;;;;;5067044;28;20331;-76
2022/02/05 17:03:56;;;;;;;;;;;;;;;;;;5084430;28;20005;-76
2022/02/05 17:06:22;;;;;;;;;;;;;;;;;;5087111;28;20526;-75
2022/02/05 17:08:52;;;;;;;;;;;;;;;;;;5081694;28;19963;-76
2022/02/05 17:11:18;;;;;;;;;;;;;;;;;;5086821;28;19967;-76
2022/02/05 17:13:44;;;;;;;;;;;;;;;;;;5088334;28;24452;-75
2022/02/05 17:16:11;;;;;;;;;;;;;;;;;;5067955;28;19955;-75
2022/02/05 17:18:38;;;;;;;;;;;;;;;;;;5084076;28;20621;-75
2022/02/05 17:21:04;;;;;;;;;;;;;;;;;;5087095;28;19975;-76
2022/02/05 17:23:33;;;;;;;;;;;;;;;;;;5086832;28;19955;-76
2022/02/05 17:25:59;;;;;;;;;;;;;;;;;;5085878;28;19951;-75
2022/02/05 17:28:26;;;;;;;;;;;;;;;;;;5068937;28;19955;-76
2022/02/05 17:30:52;;;;;;;;;;;;;;;;;;5084130;28;19920;-75
2022/02/05 17:33:18;;;;;;;;;;;;;;;;;;5086500;28;20466;-76
2022/02/05 17:35:46;;;;;;;;;;;;;;;;;;5086692;28;19947;-76
2022/02/05 17:38:17;;;;;;;;;;;;;;;;;;5068935;28;20002;-76
2022/02/05 17:40:43;;;;;;;;;;;;;;;;;;5086788;28;19967;-76
2022/02/05 17:43:09;;;;;;;;;;;;;;;;;;5081638;28;19959;-76
2022/02/05 17:45:35;;;;;;;;;;;;;;;;;;5086092;28;20415;-76
2022/02/05 17:48:04;;;;;;;;;;;;;;;;;;5088091;28;19966;-76
2022/02/05 17:50:30;;;;;;;;;;;;;;;;;;5084740;28;19997;-75
2022/02/05 17:52:56;;;;;;;;;;;;;;;;;;5081302;28;19952;-76
2022/02/05 17:55:23;;;;;;;;;;;;;;;;;;5086086;28;19955;-76
2022/02/05 17:57:55;;;;;;;;;;;;;;;;;;5085820;28;19944;-76
2022/02/05 18:00:21;;;;;;;;;;;;;;;;;;5084739;28;20396;-75
2022/02/05 18:02:47;;;;;;;;;;;;;;;;;;5086231;28;20380;-76
2022/02/05 18:05:21;;;;;;;;;;;;;;;;;;5083308;28;20510;-75
2022/02/05 18:12:53;;;;;;;;;;;;;;;;;;5082222;28;20005;-75
2022/02/05 18:15:19;;;;;;;;;;;;;;;;;;5085534;28;19955;-76
2022/02/05 18:17:46;;;;;;;;;;;;;;;;;;5080909;28;20391;-75
2022/02/05 18:20:12;;;;;;;;;;;;;;;;;;5085331;28;19968;-75
2022/02/05 18:22:38;;;;;;;;;;;;;;;;;;5083728;28;19987;-76
2022/02/05 18:25:04;;;;;;;;;;;;;;;;;;5084144;28;19958;-75
2022/02/05 18:27:31;;;;;;;;;;;;;;;;;;5077348;28;19978;-75
2022/02/05 18:29:57;;;;;;;;;;;;;;;;;;5082829;28;19955;-75
2022/02/05 18:32:23;;;;;;;;;;;;;;;;;;5082353;28;19952;-75
2022/02/05 18:34:49;;;;;;;;;;;;;;;;;;5082827;28;19952;-75
2022/02/05 18:37:15;;;;;;;;;;;;;;;;;;5083090;28;20536;-75
2022/02/05 18:39:47;;;;;;;;;;;;;;;;;;5078694;28;20736;-75
2022/02/05 18:42:16;;;;;;;;;;;;;;;;;;5083155;28;20015;-75
2022/02/05 18:44:43;;;;;;;;;;;;;;;;;;5080733;28;19952;-77
2022/02/05 18:47:09;;;;;;;;;;;;;;;;;;5082739;28;19959;-75
2022/02/05 18:49:37;;;;;;;;;;;;;;;;;;5059821;28;19967;-76
2022/02/05 18:52:03;;;;;;;;;;;;;;;;;;5078667;28;19981;-76
2022/02/05 18:54:29;;;;;;;;;;;;;;;;;;5077934;28;19955;-75
2022/02/05 18:56:57;;;;;;;;;;;;;;;;;;5061548;28;20444;-75
2022/02/05 18:59:26;;;;;;;;;;;;;;;;;;5083517;28;19951;-76
2022/02/05 19:10:22;;;;;;;;;;;;;;;;;;5080599;28;22324;-76
2022/02/05 19:15:56;;;;;;;;;;;;;;;;;;5083692;28;19952;-77
2022/02/05 19:18:20;;;;;;;;;;;;;;;;;;5077813;28;20005;-78
2022/02/05 19:20:48;;;;;;;;;;;;;;;;;;5083205;28;20033;-76
2022/02/05 19:23:14;;;;;;;;;;;;;;;;;;5076989;28;20001;-76
2022/02/05 19:25:42;;;;;;;;;;;;;;;;;;5079464;28;20579;-76
2022/02/05 19:28:08;;;;;;;;;;;;;;;;;;5083896;28;19920;-77
2022/02/05 19:30:36;;;;;;;;;;;;;;;;;;5066380;28;19963;-77
2022/02/05 19:33:03;;;;;;;;;;;;;;;;;;5079349;28;19948;-77
2022/02/05 19:35:29;;;;;;;;;;;;;;;;;;5082195;28;20028;-79
2022/02/05 19:37:55;;;;;;;;;;;;;;;;;;5057602;28;19982;-78
2022/02/05 19:40:21;;;;;;;;;;;;;;;;;;5082598;28;20529;-78
2022/02/05 19:42:48;;;;;;;;;;;;;;;;;;5078903;28;19967;-76
2022/02/05 19:45:14;;;;;;;;;;;;;;;;;;5082914;28;19986;-77
2022/02/05 19:47:52;;;;;;;;;;;;;;;;;;5081604;28;19956;-78
2022/02/05 19:50:19;;;;;;;;;;;;;;;;;;5079041;28;19920;-78
2022/02/05 19:52:45;;;;;;;;;;;;;;;;;;5084003;28;19920;-77
2022/02/05 19:55:11;;;;;;;;;;;;;;;;;;5079783;28;19959;-77
2022/02/05 19:57:37;;;;;;;;;;;;;;;;;;5079410;28;20021;-76
2022/02/05 20:00:03;;;;;;;;;;;;;;;;;;5081695;28;19971;-77
2022/02/05 20:02:33;;;;;;;;;;;;;;;;;;5083350;28;19947;-76
2022/02/05 20:05:08;;;;;;;;;;;;;;;;;;5083633;28;19990;-76
2022/02/05 20:07:48;;;;;;;;;;;;;;;;;;5083672;28;19970;-85
2022/02/05 20:10:14;;;;;;;;;;;;;;;;;;5082000;28;19971;-75
2022/02/05 20:12:41;;;;;;;;;;;;;;;;;;5082289;28;19967;-76
2022/02/05 20:15:09;;;;;;;;;;;;;;;;;;5083489;28;20340;-75